UAL352 LJLJ-LOWL
Flight info
| Callsign | UAL352 |
|---|---|
| Flight time | 0h 33m |
| Altitude | 19000 |
| Route | GIMIX DCT NUBRA |
| Aircraft | B738/M-SDE2E3FGHIRWXY/LB1 |
Departure
| Time | 2026-04-17 08:49 |
|---|---|
| Airport | Ljubljana Jože Pučnik Airport (LJLJ) |
Arrival
| Time | 2026-04-17 09:22 |
|---|---|
| Airport | Linz-Hörsching Airport (LOWL) |
| Time | Latitude | Longitude | Altitude | Speed | Heading |
|---|---|---|---|---|---|
| 2026-04-17 08:33 | 46.23000 | 14.45470 | 1266 ft | 0 kts | 36° |
| 2026-04-17 08:40 | 46.22995 | 14.45464 | 1265 ft | 2 kts | 55° |
| 2026-04-17 08:40 | 46.22985 | 14.45448 | 1265 ft | 2 kts | 31° |
| 2026-04-17 08:40 | 46.22974 | 14.45433 | 1264 ft | 2 kts | 62° |
| 2026-04-17 08:40 | 46.22969 | 14.45412 | 1264 ft | 2 kts | 81° |
| 2026-04-17 08:41 | 46.22969 | 14.45391 | 1264 ft | 2 kts | 102° |
| 2026-04-17 08:41 | 46.22974 | 14.45371 | 1264 ft | 1 kts | 122° |
| 2026-04-17 08:41 | 46.22977 | 14.45363 | 1264 ft | 1 kts | 128° |
| 2026-04-17 08:41 | 46.22979 | 14.45361 | 1264 ft | 0 kts | 126° |
| 2026-04-17 08:44 | 46.22969 | 14.45379 | 1264 ft | 4 kts | 126° |
| 2026-04-17 08:45 | 46.22935 | 14.45428 | 1262 ft | 9 kts | 149° |
| 2026-04-17 08:45 | 46.22861 | 14.45460 | 1258 ft | 13 kts | 154° |
| 2026-04-17 08:45 | 46.22786 | 14.45429 | 1254 ft | 14 kts | 257° |
| 2026-04-17 08:45 | 46.22829 | 14.45309 | 1256 ft | 13 kts | 307° |
| 2026-04-17 08:46 | 46.22886 | 14.45203 | 1261 ft | 12 kts | 308° |
| 2026-04-17 08:46 | 46.22940 | 14.45106 | 1265 ft | 12 kts | 308° |
| 2026-04-17 08:46 | 46.22991 | 14.45010 | 1269 ft | 11 kts | 307° |
| 2026-04-17 08:46 | 46.23042 | 14.44911 | 1272 ft | 13 kts | 305° |
| 2026-04-17 08:47 | 46.23104 | 14.44789 | 1275 ft | 17 kts | 306° |
| 2026-04-17 08:47 | 46.23192 | 14.44626 | 1280 ft | 23 kts | 309° |
| 2026-04-17 08:47 | 46.23299 | 14.44406 | 1287 ft | 28 kts | 306° |
| 2026-04-17 08:47 | 46.23386 | 14.44154 | 1288 ft | 29 kts | 252° |
| 2026-04-17 08:48 | 46.23199 | 14.44145 | 1280 ft | 33 kts | 137° |
| 2026-04-17 08:48 | 46.23046 | 14.44439 | 1272 ft | 48 kts | 125° |
| 2026-04-17 08:48 | 46.22674 | 14.45171 | 1253 ft | 131 kts | 125° |
| 2026-04-17 08:48 | 46.21998 | 14.46515 | 1385 ft | 187 kts | 126° |
| 2026-04-17 08:49 | 46.21200 | 14.47881 | 2527 ft | 178 kts | 128° |
| 2026-04-17 08:49 | 46.20409 | 14.49245 | 3361 ft | 182 kts | 122° |
| 2026-04-17 08:49 | 46.19814 | 14.50870 | 3996 ft | 188 kts | 104° |
| 2026-04-17 08:49 | 46.19661 | 14.52686 | 4756 ft | 188 kts | 83° |
| 2026-04-17 08:50 | 46.20005 | 14.54615 | 5137 ft | 214 kts | 65° |
| 2026-04-17 08:50 | 46.20758 | 14.56469 | 5882 ft | 221 kts | 52° |
| 2026-04-17 08:50 | 46.21722 | 14.57959 | 7257 ft | 196 kts | 40° |
| 2026-04-17 08:50 | 46.22787 | 14.59091 | 7989 ft | 202 kts | 31° |
| 2026-04-17 08:51 | 46.24138 | 14.60090 | 8301 ft | 230 kts | 22° |
| 2026-04-17 08:51 | 46.25627 | 14.60862 | 9206 ft | 229 kts | 16° |
| 2026-04-17 08:51 | 46.27199 | 14.61463 | 9743 ft | 247 kts | 12° |
| 2026-04-17 08:51 | 46.28974 | 14.61983 | 9992 ft | 266 kts | 9° |
| 2026-04-17 08:52 | 46.30823 | 14.62419 | 10577 ft | 271 kts | 8° |
| 2026-04-17 08:52 | 46.32583 | 14.62784 | 11796 ft | 258 kts | 7° |
| 2026-04-17 08:52 | 46.34241 | 14.63123 | 13113 ft | 240 kts | 6° |
| 2026-04-17 08:52 | 46.35920 | 14.63485 | 13676 ft | 253 kts | 7° |
| 2026-04-17 08:53 | 46.37748 | 14.63921 | 13937 ft | 278 kts | 8° |
| 2026-04-17 08:53 | 46.39641 | 14.64433 | 14724 ft | 281 kts | 9° |
| 2026-04-17 08:53 | 46.41472 | 14.65004 | 16044 ft | 263 kts | 11° |
| 2026-04-17 08:53 | 46.43207 | 14.65625 | 16957 ft | 260 kts | 13° |
| 2026-04-17 08:54 | 46.45012 | 14.66358 | 17222 ft | 281 kts | 14° |
| 2026-04-17 08:54 | 46.46923 | 14.67234 | 17558 ft | 299 kts | 17° |
| 2026-04-17 08:54 | 46.48843 | 14.68226 | 18497 ft | 293 kts | 19° |
| 2026-04-17 08:54 | 46.50666 | 14.69281 | 19596 ft | 278 kts | 20° |
| 2026-04-17 08:55 | 46.52452 | 14.70425 | 19992 ft | 288 kts | 22° |
| 2026-04-17 08:55 | 46.54289 | 14.71713 | 19959 ft | 312 kts | 24° |
| 2026-04-17 08:55 | 46.56232 | 14.73202 | 20326 ft | 321 kts | 26° |
| 2026-04-17 08:55 | 46.58110 | 14.74776 | 21366 ft | 308 kts | 28° |
| 2026-04-17 08:56 | 46.59859 | 14.76376 | 22384 ft | 294 kts | 30° |
| 2026-04-17 08:56 | 46.61162 | 14.77655 | 22683 ft | 301 kts | 31° |
| 2026-04-17 08:56 | 46.62431 | 14.78969 | 22715 ft | 315 kts | 32° |
| 2026-04-17 08:56 | 46.64220 | 14.80942 | 22850 ft | 330 kts | 34° |
| 2026-04-17 08:57 | 46.66012 | 14.83070 | 23546 ft | 327 kts | 36° |
| 2026-04-17 08:57 | 46.67574 | 14.85071 | 24474 ft | 316 kts | 38° |
| 2026-04-17 08:57 | 46.69210 | 14.87325 | 25123 ft | 314 kts | 40° |
| 2026-04-17 08:57 | 46.70768 | 14.89629 | 25341 ft | 326 kts | 42° |
| 2026-04-17 08:58 | 46.72419 | 14.91973 | 25262 ft | 340 kts | 32° |
| 2026-04-17 08:58 | 46.74371 | 14.93465 | 25028 ft | 354 kts | 14° |
| 2026-04-17 08:58 | 46.77007 | 14.93933 | 24772 ft | 371 kts | 354° |
| 2026-04-17 08:58 | 46.79604 | 14.93046 | 24504 ft | 391 kts | 339° |
| 2026-04-17 08:59 | 46.82127 | 14.91316 | 24234 ft | 406 kts | 332° |
| 2026-04-17 08:59 | 46.84444 | 14.89260 | 23970 ft | 404 kts | 326° |
| 2026-04-17 08:59 | 46.86671 | 14.86740 | 23695 ft | 402 kts | 321° |
| 2026-04-17 08:59 | 46.88782 | 14.84086 | 23421 ft | 401 kts | 320° |
| 2026-04-17 09:00 | 46.90852 | 14.81388 | 23148 ft | 400 kts | 319° |
| 2026-04-17 09:00 | 46.92926 | 14.78649 | 22865 ft | 398 kts | 319° |
| 2026-04-17 09:00 | 46.94970 | 14.75939 | 22570 ft | 396 kts | 319° |
| 2026-04-17 09:00 | 46.97003 | 14.73242 | 22281 ft | 396 kts | 319° |
| 2026-04-17 09:01 | 46.99050 | 14.70532 | 21991 ft | 395 kts | 319° |
| 2026-04-17 09:01 | 47.01081 | 14.67847 | 21711 ft | 394 kts | 319° |
| 2026-04-17 09:01 | 47.03101 | 14.65177 | 21425 ft | 392 kts | 319° |
| 2026-04-17 09:01 | 47.05092 | 14.62542 | 21138 ft | 391 kts | 319° |
| 2026-04-17 09:02 | 47.07114 | 14.59857 | 20858 ft | 393 kts | 319° |
| 2026-04-17 09:02 | 47.09169 | 14.57126 | 20596 ft | 407 kts | 319° |
| 2026-04-17 09:02 | 47.11254 | 14.54354 | 20305 ft | 405 kts | 319° |
| 2026-04-17 09:02 | 47.13324 | 14.51603 | 20018 ft | 403 kts | 319° |
| 2026-04-17 09:03 | 47.15423 | 14.48819 | 19722 ft | 403 kts | 319° |
| 2026-04-17 09:03 | 47.17478 | 14.46100 | 19449 ft | 401 kts | 319° |
| 2026-04-17 09:03 | 47.19541 | 14.43376 | 19248 ft | 397 kts | 319° |
| 2026-04-17 09:03 | 47.21603 | 14.40656 | 19224 ft | 399 kts | 319° |
| 2026-04-17 09:04 | 47.23681 | 14.37919 | 19245 ft | 405 kts | 319° |
| 2026-04-17 09:04 | 47.25808 | 14.35118 | 19236 ft | 411 kts | 319° |
| 2026-04-17 09:04 | 47.27914 | 14.32343 | 19229 ft | 411 kts | 319° |
| 2026-04-17 09:04 | 47.30003 | 14.29587 | 19229 ft | 411 kts | 319° |
| 2026-04-17 09:05 | 47.32248 | 14.26957 | 19226 ft | 411 kts | 326° |
| 2026-04-17 09:05 | 47.34753 | 14.24896 | 19233 ft | 411 kts | 334° |
| 2026-04-17 09:05 | 47.37357 | 14.23261 | 19225 ft | 411 kts | 338° |
| 2026-04-17 09:05 | 47.40027 | 14.21806 | 19228 ft | 411 kts | 340° |
| 2026-04-17 09:06 | 47.42720 | 14.20400 | 19223 ft | 410 kts | 340° |
| 2026-04-17 09:06 | 47.45375 | 14.18996 | 19235 ft | 411 kts | 339° |
| 2026-04-17 09:06 | 47.48067 | 14.17523 | 19230 ft | 410 kts | 339° |
| 2026-04-17 09:06 | 47.50706 | 14.16038 | 19227 ft | 410 kts | 338° |
| 2026-04-17 09:07 | 47.53342 | 14.14528 | 19216 ft | 409 kts | 338° |
| 2026-04-17 09:07 | 47.55994 | 14.12990 | 19230 ft | 410 kts | 338° |
| 2026-04-17 09:07 | 47.58611 | 14.11459 | 19227 ft | 408 kts | 338° |
| 2026-04-17 09:07 | 47.61215 | 14.09927 | 19222 ft | 406 kts | 338° |
| 2026-04-17 09:08 | 47.63732 | 14.08441 | 19224 ft | 385 kts | 338° |
| 2026-04-17 09:08 | 47.66165 | 14.07002 | 19226 ft | 370 kts | 338° |
| 2026-04-17 09:08 | 47.68546 | 14.05591 | 19219 ft | 371 kts | 338° |
| 2026-04-17 09:08 | 47.70913 | 14.04187 | 19009 ft | 374 kts | 338° |
| 2026-04-17 09:09 | 47.73315 | 14.02762 | 18631 ft | 367 kts | 338° |
| 2026-04-17 09:09 | 47.75642 | 14.01384 | 18146 ft | 362 kts | 338° |
| 2026-04-17 09:09 | 47.78021 | 14.00272 | 17569 ft | 360 kts | 347° |
| 2026-04-17 09:09 | 47.80484 | 14.00084 | 16983 ft | 360 kts | 5° |
| 2026-04-17 09:10 | 47.85066 | 14.02862 | 15770 ft | 361 kts | 27° |
| 2026-04-17 09:10 | 47.87215 | 14.04739 | 15171 ft | 358 kts | 28° |
| 2026-04-17 09:10 | 47.89286 | 14.06649 | 14552 ft | 357 kts | 33° |
| 2026-04-17 09:11 | 47.91072 | 14.09211 | 13798 ft | 359 kts | 47° |
| 2026-04-17 09:11 | 47.92566 | 14.12154 | 13116 ft | 356 kts | 52° |
| 2026-04-17 09:11 | 47.93958 | 14.15178 | 12545 ft | 350 kts | 53° |
| 2026-04-17 09:11 | 47.95293 | 14.18098 | 12125 ft | 337 kts | 53° |
| 2026-04-17 09:12 | 47.96595 | 14.20892 | 11725 ft | 322 kts | 52° |
| 2026-04-17 09:12 | 47.97868 | 14.23552 | 11277 ft | 311 kts | 52° |
| 2026-04-17 09:12 | 47.99111 | 14.26099 | 10875 ft | 301 kts | 52° |
| 2026-04-17 09:12 | 48.00338 | 14.28583 | 10428 ft | 297 kts | 52° |
| 2026-04-17 09:13 | 48.01544 | 14.31013 | 10250 ft | 284 kts | 51° |
| 2026-04-17 09:13 | 48.02712 | 14.33364 | 9817 ft | 281 kts | 52° |
| 2026-04-17 09:13 | 48.03861 | 14.35681 | 9403 ft | 278 kts | 52° |
| 2026-04-17 09:13 | 48.04991 | 14.37963 | 9087 ft | 274 kts | 52° |
| 2026-04-17 09:14 | 48.06096 | 14.40198 | 8897 ft | 266 kts | 52° |
| 2026-04-17 09:14 | 48.07176 | 14.42386 | 8574 ft | 263 kts | 52° |
| 2026-04-17 09:14 | 48.08261 | 14.44583 | 8240 ft | 268 kts | 52° |
| 2026-04-17 09:14 | 48.09441 | 14.46967 | 8151 ft | 288 kts | 52° |
| 2026-04-17 09:15 | 48.10616 | 14.49345 | 8048 ft | 280 kts | 52° |
| 2026-04-17 09:15 | 48.11741 | 14.51629 | 7823 ft | 273 kts | 52° |
| 2026-04-17 09:15 | 48.12849 | 14.53887 | 7576 ft | 267 kts | 52° |
| 2026-04-17 09:15 | 48.13943 | 14.56111 | 7294 ft | 260 kts | 52° |
| 2026-04-17 09:16 | 48.15010 | 14.58263 | 6995 ft | 258 kts | 50° |
| 2026-04-17 09:16 | 48.16265 | 14.60173 | 6641 ft | 257 kts | 33° |
| 2026-04-17 09:16 | 48.17907 | 14.61085 | 6293 ft | 254 kts | 4° |
| 2026-04-17 09:16 | 48.19672 | 14.61028 | 5959 ft | 253 kts | 355° |
| 2026-04-17 09:17 | 48.21393 | 14.60725 | 5606 ft | 251 kts | 347° |
| 2026-04-17 09:17 | 48.23008 | 14.59825 | 5260 ft | 247 kts | 328° |
| 2026-04-17 09:17 | 48.24178 | 14.58004 | 4910 ft | 248 kts | 297° |
| 2026-04-17 09:17 | 48.24568 | 14.55499 | 4577 ft | 248 kts | 270° |
| 2026-04-17 09:18 | 48.24488 | 14.52953 | 4327 ft | 240 kts | 267° |
| 2026-04-17 09:18 | 48.24385 | 14.50502 | 4074 ft | 233 kts | 268° |
| 2026-04-17 09:18 | 48.24302 | 14.48131 | 3961 ft | 222 kts | 268° |
| 2026-04-17 09:18 | 48.24229 | 14.45832 | 3972 ft | 222 kts | 268° |
| 2026-04-17 09:19 | 48.24146 | 14.43518 | 3925 ft | 220 kts | 268° |
| 2026-04-17 09:19 | 48.24069 | 14.41267 | 3675 ft | 217 kts | 268° |
| 2026-04-17 09:19 | 48.23999 | 14.39009 | 3388 ft | 215 kts | 268° |
| 2026-04-17 09:19 | 48.23929 | 14.36817 | 3098 ft | 210 kts | 268° |
| 2026-04-17 09:20 | 48.23859 | 14.34738 | 2826 ft | 191 kts | 268° |
| 2026-04-17 09:20 | 48.23795 | 14.32814 | 2596 ft | 175 kts | 268° |
| 2026-04-17 09:20 | 48.23738 | 14.31043 | 2330 ft | 165 kts | 268° |
| 2026-04-17 09:20 | 48.23682 | 14.29383 | 2183 ft | 157 kts | 268° |
| 2026-04-17 09:21 | 48.23628 | 14.27780 | 1904 ft | 150 kts | 268° |
| 2026-04-17 09:21 | 48.23576 | 14.26235 | 1734 ft | 151 kts | 268° |
| 2026-04-17 09:21 | 48.23527 | 14.24676 | 1563 ft | 151 kts | 268° |
| 2026-04-17 09:21 | 48.23481 | 14.23090 | 1296 ft | 153 kts | 268° |
| 2026-04-17 09:22 | 48.23413 | 14.21531 | 1130 ft | 149 kts | 267° |
| 2026-04-17 09:22 | 48.23361 | 14.19987 | 965 ft | 142 kts | 268° |
| 2026-04-17 09:22 | 48.23327 | 14.18758 | 969 ft | 84 kts | 268° |
| 2026-04-17 09:22 | 48.23312 | 14.18211 | 973 ft | 31 kts | 267° |
| 2026-04-17 09:23 | 48.23344 | 14.17925 | 973 ft | 23 kts | 325° |
| 2026-04-17 09:23 | 48.23499 | 14.17942 | 970 ft | 23 kts | 13° |
| 2026-04-17 09:23 | 48.23653 | 14.18005 | 969 ft | 22 kts | 15° |
| 2026-04-17 09:23 | 48.23705 | 14.18112 | 969 ft | 8 kts | 78° |
| 2026-04-17 09:24 | 48.23718 | 14.18218 | 969 ft | 13 kts | 82° |
| 2026-04-17 09:24 | 48.23730 | 14.18385 | 970 ft | 19 kts | 84° |
| 2026-04-17 09:24 | 48.23741 | 14.18611 | 969 ft | 24 kts | 86° |
| 2026-04-17 09:24 | 48.23753 | 14.18899 | 971 ft | 28 kts | 86° |
| 2026-04-17 09:25 | 48.23776 | 14.19064 | 970 ft | 13 kts | 28° |
| 2026-04-17 09:25 | 48.23838 | 14.19103 | 969 ft | 0 kts | 83° |
| 2026-04-17 09:25 | 48.23839 | 14.19123 | 969 ft | 6 kts | 84° |
| 2026-04-17 09:25 | 48.23839 | 14.19128 | 969 ft | 0 kts | 84° |